Time;durP1;ratioP1;P1;durP2;ratioP2;P2;SDS_P1;SDS_P2;PMS_P1;PMS_P2;Temp;Humidity;BMP_temperature;BMP_pressure;BME280_temperature;BME280_humidity;BME280_pressure;Samples;Min_cycle;Max_cycle;Signal;HPM_P1;HPM_P2
2021/07/29 00:00:52;;;;;;;;;2.25;1.00;;;;;20.60;49.69;100943.00;4959745;28;45332;-66
2021/07/29 00:03:17;;;;;;;;;1.50;1.00;;;;;20.76;49.24;100969.06;4955956;28;45300;-66
2021/07/29 00:05:42;;;;;;;;;2.25;1.50;;;;;20.61;49.69;100939.31;4965116;28;45454;-65
2021/07/29 00:08:08;;;;;;;;;2.00;2.00;;;;;20.70;49.60;100967.66;5014946;28;48677;-65
2021/07/29 00:10:33;;;;;;;;;1.50;1.50;;;;;20.66;50.05;100967.00;4981061;28;45307;-65
2021/07/29 00:12:59;;;;;;;;;1.00;1.00;;;;;20.53;49.85;100939.88;5026371;28;45425;-65
2021/07/29 00:15:24;;;;;;;;;3.00;3.00;;;;;20.60;50.03;100962.00;4959686;28;45319;-65
2021/07/29 00:20:17;;;;;;;;;2.00;2.00;;;;;20.41;50.28;100937.16;4959671;28;45304;-66
2021/07/29 00:22:43;;;;;;;;;1.00;1.00;;;;;20.41;50.56;100942.56;4984100;28;45402;-65
2021/07/29 00:25:13;;;;;;;;;3.00;3.00;;;;;20.61;50.38;100979.97;4959633;28;45581;-65
2021/07/29 00:27:43;;;;;;;;;2.25;2.00;;;;;20.45;50.27;100952.25;4959467;28;45309;-65
2021/07/29 00:30:10;;;;;;;;;2.00;2.00;;;;;20.60;50.86;100980.97;4959476;28;45422;-65
2021/07/29 00:32:36;;;;;;;;;2.00;1.00;;;;;20.46;50.52;100957.53;4971139;28;45589;-65
2021/07/29 00:35:06;;;;;;;;;2.00;2.00;;;;;20.40;50.85;100955.28;4974588;28;45439;-65
2021/07/29 00:37:38;;;;;;;;;2.75;2.75;;;;;20.51;51.00;100982.50;4978359;28;47078;-65
2021/07/29 00:40:05;;;;;;;;;2.00;2.00;;;;;20.41;50.68;100969.69;4959371;28;45426;-65
2021/07/29 00:42:30;;;;;;;;;2.00;2.00;;;;;20.27;51.08;100949.81;4959618;28;45456;-65
2021/07/29 00:44:56;;;;;;;;;1.00;1.00;;;;;20.22;51.07;100943.00;4996646;28;45463;-66
2021/07/29 00:47:21;;;;;;;;;1.00;1.00;;;;;20.20;51.37;100934.97;4959071;28;46633;-66
2021/07/29 00:49:48;;;;;;;;;3.75;3.75;;;;;20.19;51.31;100935.94;4959299;28;45249;-66
2021/07/29 00:52:15;;;;;;;;;4.00;2.75;;;;;20.19;51.42;100938.66;4958262;28;45407;-65
2021/07/29 00:54:41;;;;;;;;;2.00;1.50;;;;;20.33;51.45;100967.50;4959009;28;45169;-65
2021/07/29 00:57:08;;;;;;;;;2.75;1.25;;;;;20.15;51.54;100937.16;4959209;28;45316;-65
2021/07/29 00:59:35;;;;;;;;;1.00;1.00;;;;;20.21;51.67;100946.69;4963627;28;45304;-65
2021/07/29 01:02:00;;;;;;;;;3.25;2.25;;;;;20.33;51.50;100971.09;4967907;28;45313;-65
2021/07/29 01:04:25;;;;;;;;;3.00;3.00;;;;;20.11;51.65;100933.78;4948367;28;45689;-65
2021/07/29 01:06:51;;;;;;;;;2.00;1.00;;;;;20.29;51.77;100972.25;4958852;28;45913;-65
2021/07/29 01:09:16;;;;;;;;;3.00;3.00;;;;;20.21;51.82;100961.09;4980193;28;45640;-66
2021/07/29 01:11:43;;;;;;;;;2.00;2.00;;;;;20.24;52.01;100963.59;4959637;28;45414;-65
2021/07/29 01:14:09;;;;;;;;;2.50;2.50;;;;;20.17;51.79;100970.41;4958976;28;45458;-66
2021/07/29 01:16:35;;;;;;;;;1.75;1.00;;;;;19.99;52.33;100937.31;4963730;28;48288;-65
2021/07/29 01:19:01;;;;;;;;;2.00;2.00;;;;;20.10;52.24;100966.41;4963895;28;45252;-65
2021/07/29 01:21:28;;;;;;;;;2.00;2.00;;;;;20.04;52.39;100961.41;4957640;28;45364;-65
2021/07/29 01:23:55;;;;;;;;;2.00;2.00;;;;;20.01;52.12;100959.75;4986208;28;45512;-65
2021/07/29 01:26:20;;;;;;;;;1.75;1.75;;;;;19.98;52.24;100960.84;4958988;28;46424;-65
2021/07/29 01:28:46;;;;;;;;;2.25;2.25;;;;;20.11;52.16;100985.28;4958750;28;45406;-65
2021/07/29 01:31:11;;;;;;;;;2.00;2.00;;;;;20.07;52.50;100980.16;4979301;28;45683;-65
2021/07/29 01:33:38;;;;;;;;;2.00;2.00;;;;;20.05;52.79;100991.09;4957092;28;46043;-65
2021/07/29 01:36:04;;;;;;;;;5.00;2.00;;;;;19.98;52.81;100979.81;4966274;28;45482;-65
2021/07/29 01:38:29;;;;;;;;;3.50;3.50;;;;;19.99;52.56;100983.38;4962791;28;45233;-65
2021/07/29 01:40:55;;;;;;;;;2.75;2.00;;;;;19.92;52.48;100982.94;4957666;28;45266;-65
2021/07/29 01:43:20;;;;;;;;;2.75;2.75;;;;;19.73;52.88;100944.47;4989995;27;45616;-65
2021/07/29 01:45:47;;;;;;;;;1.00;1.00;;;;;19.76;52.79;100956.03;5011289;28;46531;-65
2021/07/29 01:48:12;;;;;;;;;2.00;2.00;;;;;19.95;53.00;100987.28;4970109;28;45280;-65
2021/07/29 01:50:37;;;;;;;;;1.75;1.75;;;;;19.73;53.15;100952.59;4973692;28;45788;-65
2021/07/29 01:53:03;;;;;;;;;3.25;2.25;;;;;19.77;52.94;100962.31;4957223;28;45335;-65
2021/07/29 01:55:28;;;;;;;;;2.00;2.00;;;;;19.65;53.04;100944.16;4957172;28;47151;-65
2021/07/29 01:57:54;;;;;;;;;2.25;2.25;;;;;19.83;53.32;100978.16;4962899;28;45376;-65
2021/07/29 02:00:19;;;;;;;;;1.00;1.00;;;;;19.76;53.17;100968.69;4958631;28;45454;-65
2021/07/29 02:02:45;;;;;;;;;3.00;3.00;;;;;19.89;53.52;100991.25;4958227;28;45312;-65
2021/07/29 02:05:10;;;;;;;;;2.25;2.00;;;;;19.55;53.04;100939.34;4945561;28;46192;-66
2021/07/29 02:07:35;;;;;;;;;2.75;1.00;;;;;19.70;53.13;100960.97;5018036;28;45398;-65
2021/07/29 02:10:01;;;;;;;;;2.25;2.25;;;;;19.61;53.42;100955.19;4981663;28;46051;-65
2021/07/29 02:12:26;;;;;;;;;2.50;2.50;;;;;19.72;53.15;100967.13;4958359;28;45427;-65
2021/07/29 02:14:51;;;;;;;;;4.00;3.25;;;;;19.86;53.66;100998.72;4957981;28;46309;-65
2021/07/29 02:17:23;;;;;;;;;2.00;2.00;;;;;19.65;53.70;100963.97;4989253;27;45493;-65
2021/07/29 02:19:48;;;;;;;;;2.00;2.00;;;;;19.80;53.31;100984.63;4953858;28;45362;-65
2021/07/29 02:22:15;;;;;;;;;2.00;2.00;;;;;19.62;53.66;100948.78;4949448;28;45628;-65
2021/07/29 02:24:41;;;;;;;;;3.25;1.50;;;;;19.79;53.83;100990.16;4957946;28;46400;-65
2021/07/29 02:27:06;;;;;;;;;3.00;2.50;;;;;19.79;54.11;100996.44;4956646;28;45766;-65
2021/07/29 02:29:32;;;;;;;;;3.00;2.50;;;;;19.76;54.36;100990.34;4989157;28;45420;-65
2021/07/29 02:31:57;;;;;;;;;1.75;1.75;;;;;19.76;54.27;100993.06;4957552;28;45362;-65
2021/07/29 02:34:23;;;;;;;;;3.50;1.50;;;;;19.68;54.27;100979.13;4957572;28;45369;-65
2021/07/29 02:36:49;;;;;;;;;1.75;1.75;;;;;19.54;54.28;100964.69;4957866;28;45291;-65
2021/07/29 02:39:15;;;;;;;;;1.75;1.75;;;;;19.55;54.39;100974.53;4958286;28;45265;-65
2021/07/29 02:41:40;;;;;;;;;2.75;2.00;;;;;19.55;54.20;100968.28;4957771;28;45596;-65
2021/07/29 02:44:06;;;;;;;;;3.25;2.00;;;;;19.56;54.39;100980.81;4978870;28;47548;-65
2021/07/29 02:46:31;;;;;;;;;2.50;2.50;;;;;19.50;54.35;100965.88;4990622;28;45234;-65
2021/07/29 02:48:57;;;;;;;;;2.25;1.50;;;;;19.62;54.19;100991.25;4958155;28;45304;-65
2021/07/29 02:51:22;;;;;;;;;2.00;2.00;;;;;19.51;54.31;100970.31;4956142;28;45259;-65
2021/07/29 02:53:47;;;;;;;;;3.50;3.00;;;;;19.73;54.04;101009.47;4957506;28;45334;-65
2021/07/29 02:56:13;;;;;;;;;2.50;2.25;;;;;19.49;54.43;100964.13;4956237;28;45232;-65
2021/07/29 02:58:38;;;;;;;;;3.00;3.00;;;;;19.56;54.42;100984.41;4957948;28;45256;-65
2021/07/29 03:01:04;;;;;;;;;2.00;2.00;;;;;19.51;54.60;100981.16;4951383;28;45252;-65
2021/07/29 03:03:30;;;;;;;;;3.00;2.25;;;;;19.50;54.66;100983.97;4950790;28;48133;-65
2021/07/29 03:05:56;;;;;;;;;2.25;2.25;;;;;19.50;54.79;100984.81;4950312;28;45506;-65
2021/07/29 03:08:21;;;;;;;;;2.75;2.75;;;;;19.66;54.68;101010.88;4956207;28;45338;-65
2021/07/29 03:10:47;;;;;;;;;2.00;1.25;;;;;19.40;53.98;100980.97;4979657;28;45410;-65
2021/07/29 03:13:14;;;;;;;;;2.50;2.00;;;;;19.60;54.13;101002.19;4957255;28;45418;-65
2021/07/29 03:15:39;;;;;;;;;4.00;3.25;;;;;19.63;54.57;101023.66;4957342;28;45593;-65
2021/07/29 03:18:04;;;;;;;;;2.25;1.25;;;;;19.44;54.90;101005.06;4957023;28;45252;-65
2021/07/29 03:20:30;;;;;;;;;3.75;3.00;;;;;19.59;54.88;101021.22;4955396;28;45341;-65
2021/07/29 03:22:55;;;;;;;;;3.25;3.25;;;;;19.30;55.17;100980.72;4999148;27;47277;-65
2021/07/29 03:25:21;;;;;;;;;4.25;1.50;;;;;19.36;55.04;100991.16;4957172;28;45393;-65
2021/07/29 03:27:46;;;;;;;;;1.00;1.00;;;;;19.37;55.05;100989.28;5030503;28;45178;-65
2021/07/29 03:30:12;;;;;;;;;2.25;2.25;;;;;19.36;55.45;100992.97;4964204;28;45275;-65
2021/07/29 03:32:37;;;;;;;;;1.75;1.75;;;;;19.29;55.49;100978.97;4953965;28;47338;-65
2021/07/29 03:35:04;;;;;;;;;3.00;2.00;;;;;19.35;55.23;100988.53;4957175;28;45239;-65
2021/07/29 03:37:29;;;;;;;;;2.50;2.50;;;;;19.30;55.61;100982.56;4957286;28;45455;-65
2021/07/29 03:39:54;;;;;;;;;4.00;3.00;;;;;19.33;55.25;100990.44;4956994;28;45232;-65
2021/07/29 03:42:22;;;;;;;;;4.25;1.75;;;;;19.50;55.05;101020.00;4958858;28;46213;-65
2021/07/29 03:44:48;;;;;;;;;1.50;1.25;;;;;19.35;55.44;100996.66;5009940;28;45417;-65
2021/07/29 03:47:14;;;;;;;;;3.00;3.00;;;;;19.24;55.71;100981.09;4991491;28;45454;-65
2021/07/29 03:49:39;;;;;;;;;4.50;2.75;;;;;19.25;55.38;100988.25;4971697;28;45274;-65
2021/07/29 03:52:04;;;;;;;;;1.75;1.75;;;;;19.23;55.59;100991.06;4958467;28;46608;-65
2021/07/29 03:54:31;;;;;;;;;2.75;2.75;;;;;19.42;55.75;101025.06;4958510;28;45300;-65
2021/07/29 03:56:56;;;;;;;;;4.00;3.25;;;;;19.37;55.47;101016.38;4958902;28;45287;-65
2021/07/29 03:59:22;;;;;;;;;2.25;2.25;;;;;19.36;55.68;101012.78;4964302;28;45623;-65
2021/07/29 04:01:47;;;;;;;;;3.00;2.00;;;;;19.15;55.55;100982.56;4959924;28;45312;-65
2021/07/29 04:04:13;;;;;;;;;2.00;2.00;;;;;19.07;55.83;100968.66;4978713;28;45766;-65
2021/07/29 04:06:38;;;;;;;;;3.25;2.00;;;;;19.44;55.78;101028.53;4960996;28;45348;-65
2021/07/29 04:09:03;;;;;;;;;1.75;1.75;;;;;19.33;55.95;101013.00;4980553;28;45347;-65
2021/07/29 04:11:29;;;;;;;;;2.25;2.25;;;;;19.33;55.93;101013.00;4970289;28;45509;-65
2021/07/29 04:13:54;;;;;;;;;2.75;1.75;;;;;19.24;55.93;101006.34;4959831;28;45418;-65
2021/07/29 04:16:20;;;;;;;;;1.00;1.00;;;;;19.43;55.73;101043.91;4958194;28;45334;-65
2021/07/29 04:18:45;;;;;;;;;2.00;2.00;;;;;19.29;56.06;101026.81;4974294;28;45817;-65
2021/07/29 04:21:17;;;;;;;;;2.00;2.00;;;;;19.20;56.29;101021.03;5026151;28;48147;-65
2021/07/29 04:23:42;;;;;;;;;3.00;3.00;;;;;19.16;55.89;101010.50;4963534;28;46255;-65
2021/07/29 04:26:08;;;;;;;;;2.25;2.25;;;;;19.09;56.37;100999.19;4972736;28;45294;-65
2021/07/29 04:28:33;;;;;;;;;3.25;1.75;;;;;19.22;56.44;101021.78;4990947;28;45595;-65
2021/07/29 04:30:59;;;;;;;;;2.25;1.25;;;;;19.10;56.58;101006.34;4959328;28;46094;-65
2021/07/29 04:33:24;;;;;;;;;2.50;2.50;;;;;19.16;56.79;101014.09;4957419;28;45439;-65
2021/07/29 04:35:50;;;;;;;;;2.75;1.75;;;;;19.04;56.41;101004.03;5026719;28;45410;-65
2021/07/29 04:38:15;;;;;;;;;2.25;2.25;;;;;19.06;56.86;101008.38;4959475;28;45248;-65
2021/07/29 04:40:40;;;;;;;;;3.00;2.00;;;;;19.20;56.78;101031.00;4959143;28;46466;-65
2021/07/29 04:43:06;;;;;;;;;5.25;2.75;;;;;19.01;56.77;101001.50;4959581;28;45450;-65
2021/07/29 04:45:31;;;;;;;;;2.50;2.00;;;;;19.12;56.69;101019.78;5007820;28;45364;-65
2021/07/29 04:47:57;;;;;;;;;2.00;2.00;;;;;19.11;56.70;101018.94;4958091;28;45541;-65
2021/07/29 04:50:22;;;;;;;;;3.00;3.00;;;;;19.05;56.59;101003.94;4974240;28;48151;-65
2021/07/29 04:52:50;;;;;;;;;3.25;2.25;;;;;19.23;56.56;101031.66;4990366;28;45445;-65
2021/07/29 04:55:16;;;;;;;;;4.00;3.00;;;;;19.05;56.79;101006.63;4959190;28;45280;-65
2021/07/29 04:57:41;;;;;;;;;3.75;3.00;;;;;18.98;56.89;100993.63;4962502;28;45340;-65
2021/07/29 05:00:08;;;;;;;;;2.00;2.00;;;;;19.23;57.08;101033.50;4974097;28;48340;-65
2021/07/29 05:02:33;;;;;;;;;2.00;2.00;;;;;19.09;57.05;101015.41;4958941;28;45401;-65
2021/07/29 05:04:58;;;;;;;;;3.50;2.25;;;;;19.16;57.24;101030.31;4952714;28;45413;-65
2021/07/29 05:07:24;;;;;;;;;3.25;3.00;;;;;18.99;57.18;101004.31;5011939;28;45544;-65
2021/07/29 05:09:49;;;;;;;;;2.00;2.00;;;;;19.23;57.16;101042.47;4986654;28;47377;-65
2021/07/29 05:12:15;;;;;;;;;3.50;2.50;;;;;19.15;57.19;101044.81;4959017;28;45326;-65
2021/07/29 05:14:40;;;;;;;;;4.00;3.00;;;;;18.98;56.81;101018.81;4959147;28;45452;-65
2021/07/29 05:17:05;;;;;;;;;3.50;3.00;;;;;18.97;57.17;101021.63;4958709;28;45420;-64
2021/07/29 05:19:31;;;;;;;;;3.50;3.00;;;;;19.00;57.01;101018.72;4958760;28;45560;-65
2021/07/29 05:21:56;;;;;;;;;2.00;2.00;;;;;18.86;57.29;101004.25;4960105;28;45238;-75
2021/07/29 05:24:21;;;;;;;;;4.00;4.00;;;;;18.95;57.33;101018.16;4958640;28;45457;-75
2021/07/29 05:26:47;;;;;;;;;3.50;3.50;;;;;18.86;57.11;101009.66;4958911;28;45618;-75
2021/07/29 05:29:12;;;;;;;;;3.25;2.25;;;;;18.83;57.45;101007.13;4957763;28;45501;-75
2021/07/29 05:31:41;;;;;;;;;5.75;2.00;;;;;18.95;57.03;101035.25;4958372;28;45394;-75
2021/07/29 05:34:12;;;;;;;;;3.00;3.00;;;;;19.16;57.24;101053.78;4957511;28;45772;-75
2021/07/29 05:36:38;;;;;;;;;2.75;2.75;;;;;19.07;57.25;101047.97;4957921;28;45460;-75
2021/07/29 05:39:04;;;;;;;;;2.00;2.00;;;;;18.98;57.09;101035.06;4958643;28;46064;-75
2021/07/29 05:41:30;;;;;;;;;4.00;4.00;;;;;19.13;57.28;101060.28;4959858;28;45392;-77
2021/07/29 05:43:55;;;;;;;;;3.00;2.25;;;;;18.95;57.43;101027.13;5003165;27;46765;-74
2021/07/29 05:46:22;;;;;;;;;2.00;2.00;;;;;19.03;57.26;101042.88;4979660;28;45526;-76
2021/07/29 05:48:48;;;;;;;;;4.00;3.25;;;;;18.99;57.54;101044.03;4971708;28;48200;-75
2021/07/29 05:51:13;;;;;;;;;2.00;2.00;;;;;19.09;57.44;101053.31;4958350;28;45550;-76
2021/07/29 05:53:38;;;;;;;;;3.00;2.00;;;;;18.87;57.25;101021.34;4977416;28;45226;-77
2021/07/29 05:56:04;;;;;;;;;3.00;2.25;;;;;18.96;57.20;101031.59;5002557;28;53120;-76
2021/07/29 05:58:29;;;;;;;;;2.00;2.00;;;;;18.98;56.81;101043.19;4992060;28;45403;-74
2021/07/29 06:00:54;;;;;;;;;4.50;4.00;;;;;18.90;57.34;101014.88;4953772;28;45444;-75
2021/07/29 06:03:31;;;;;;;;;2.25;2.00;;;;;19.12;57.34;101046.84;4956249;28;45772;-68
2021/07/29 06:05:59;;;;;;;;;4.25;3.50;;;;;18.83;57.53;101000.88;4988063;28;45499;-73
2021/07/29 06:08:24;;;;;;;;;1.75;1.75;;;;;19.11;57.32;101051.41;4967373;28;47717;-73
2021/07/29 06:10:49;;;;;;;;;4.00;2.25;;;;;19.11;57.42;101051.41;4966811;28;45314;-73
2021/07/29 06:13:15;;;;;;;;;4.00;2.25;;;;;18.96;58.13;101022.59;4988964;28;45411;-73
2021/07/29 06:15:40;;;;;;;;;3.00;2.75;;;;;19.03;57.35;101042.88;4957990;28;45258;-76
2021/07/29 06:18:09;;;;;;;;;4.50;2.75;;;;;19.01;57.58;101040.28;4987295;28;47266;-75
2021/07/29 06:20:35;;;;;;;;;3.00;3.00;;;;;19.14;57.87;101059.28;4983262;28;45463;-74
2021/07/29 06:23:00;;;;;;;;;2.00;2.00;;;;;18.95;57.70;101031.69;4978325;28;45277;-74
2021/07/29 06:25:26;;;;;;;;;2.00;2.00;;;;;19.01;57.74;101048.41;4952244;28;45456;-74
2021/07/29 06:27:51;;;;;;;;;2.00;2.00;;;;;19.23;57.51;101082.22;4958260;28;45555;-77
2021/07/29 06:30:17;;;;;;;;;2.25;2.00;;;;;19.25;57.48;101088.41;4957175;28;45352;-76
2021/07/29 06:32:43;;;;;;;;;3.50;3.50;;;;;19.28;57.47;101095.44;4957809;28;45331;-76
2021/07/29 06:35:09;;;;;;;;;3.00;3.00;;;;;19.07;57.38;101066.06;4957067;28;45528;-74
2021/07/29 06:37:34;;;;;;;;;4.50;4.00;;;;;19.03;57.47;101061.81;4956814;28;45382;-73
2021/07/29 06:40:00;;;;;;;;;2.75;2.75;;;;;18.88;57.60;101034.75;4957007;28;45307;-74
2021/07/29 06:42:25;;;;;;;;;2.25;2.00;;;;;19.16;57.58;101078.13;4957523;28;45180;-74
2021/07/29 06:44:51;;;;;;;;;2.50;2.00;;;;;18.98;57.78;101045.03;4980219;28;45681;-74
2021/07/29 06:47:24;;;;;;;;;3.00;3.00;;;;;19.03;57.51;101049.16;4956292;28;46268;-74
2021/07/29 06:49:50;;;;;;;;;3.50;2.75;;;;;19.32;57.62;101091.59;4953240;28;45371;-74
2021/07/29 06:52:15;;;;;;;;;3.25;3.00;;;;;19.17;57.83;101090.72;4971441;28;45462;-75
2021/07/29 06:54:41;;;;;;;;;4.25;4.00;;;;;19.28;57.76;101090.03;4961507;28;45619;-76
2021/07/29 06:57:07;;;;;;;;;4.75;3.00;;;;;19.10;57.66;101071.28;4961240;28;45847;-77
2021/07/29 06:59:33;;;;;;;;;3.25;3.00;;;;;19.31;57.59;101106.06;4992070;27;46082;-77
2021/07/29 07:01:59;;;;;;;;;2.25;2.00;;;;;19.19;57.66;101075.25;4955728;28;45418;-76
2021/07/29 07:04:26;;;;;;;;;3.00;3.00;;;;;19.12;57.43;101072.06;4984865;28;45476;-77
2021/07/29 07:06:51;;;;;;;;;4.50;3.75;;;;;19.36;57.08;101106.66;4959972;28;46286;-77
2021/07/29 07:09:16;;;;;;;;;2.50;2.50;;;;;19.26;57.64;101087.41;4977719;28;45421;-77
2021/07/29 07:11:42;;;;;;;;;2.00;2.00;;;;;19.22;57.18;101081.31;4983977;28;45753;-77
2021/07/29 07:14:09;;;;;;;;;3.00;3.00;;;;;19.50;56.83;101125.59;4956071;28;45398;-77
2021/07/29 07:16:34;;;;;;;;;3.25;2.50;;;;;19.23;57.19;101077.66;4956940;28;46344;-77
2021/07/29 07:19:00;;;;;;;;;3.00;1.75;;;;;19.15;57.16;101063.75;4959517;28;45387;-77
2021/07/29 07:21:25;;;;;;;;;4.75;2.75;;;;;19.39;57.34;101109.16;4960934;28;45418;-77
2021/07/29 07:23:51;;;;;;;;;2.00;2.00;;;;;19.52;57.01;101126.38;4967124;28;45525;-78
2021/07/29 07:26:19;;;;;;;;;3.75;3.00;;;;;19.55;56.84;101125.31;4959395;28;45950;-78
2021/07/29 07:28:45;;;;;;;;;3.00;3.00;;;;;19.20;56.63;101075.16;4958665;28;45410;-77
2021/07/29 07:31:11;;;;;;;;;3.00;3.00;;;;;19.49;57.14;101110.31;4958234;28;45569;-77
2021/07/29 07:33:37;;;;;;;;;2.75;2.25;;;;;19.57;57.10;101118.81;4959167;28;45534;-77
2021/07/29 07:36:03;;;;;;;;;2.25;2.25;;;;;19.69;57.38;101140.66;4958856;28;46036;-78
2021/07/29 07:38:28;;;;;;;;;2.00;2.00;;;;;19.71;56.92;101136.91;4960289;28;45505;-77
2021/07/29 07:40:53;;;;;;;;;3.00;3.00;;;;;19.72;57.22;101137.75;4971020;28;45468;-76
2021/07/29 07:43:19;;;;;;;;;4.00;2.25;;;;;19.51;57.35;101097.56;4953550;28;45446;-77
2021/07/29 07:45:45;;;;;;;;;2.50;2.50;;;;;19.70;56.84;101118.03;4983029;28;45405;-78
2021/07/29 07:48:10;;;;;;;;;2.00;2.00;;;;;19.65;57.08;101112.91;4959262;28;45544;-77
2021/07/29 07:50:40;;;;;;;;;3.50;2.50;;;;;19.61;56.89;101097.81;4958820;28;45441;-77
2021/07/29 07:53:06;;;;;;;;;2.75;2.50;;;;;19.84;56.98;101136.97;4959084;28;45519;-78
2021/07/29 07:55:31;;;;;;;;;2.75;2.25;;;;;19.90;56.87;101133.88;4958838;28;46221;-77
2021/07/29 07:57:57;;;;;;;;;3.25;2.25;;;;;19.77;56.76;101103.16;4963458;28;45467;-77
2021/07/29 08:00:23;;;;;;;;;3.50;3.50;;;;;19.79;56.17;101102.06;4957956;28;45902;-74
2021/07/29 08:02:48;;;;;;;;;3.00;3.00;;;;;20.02;56.24;101134.91;4994632;28;45690;-77
2021/07/29 08:05:16;;;;;;;;;3.00;3.00;;;;;19.78;55.73;101089.50;4951772;28;46381;-80
2021/07/29 08:07:44;;;;;;;;;4.00;4.00;;;;;20.08;56.28;101126.41;4958464;28;45414;-65
2021/07/29 08:10:12;;;;;;;;;2.75;2.75;;;;;20.08;55.65;101117.38;4964781;28;45441;-65
2021/07/29 08:12:37;;;;;;;;;3.00;2.00;;;;;19.99;55.70;101106.16;4974034;28;45419;-65
2021/07/29 08:15:07;;;;;;;;;2.00;2.00;;;;;20.24;56.02;101138.91;4974029;28;48067;-65
2021/07/29 08:17:34;;;;;;;;;2.25;2.25;;;;;20.01;55.83;101087.09;4956989;28;45660;-65
2021/07/29 08:20:02;;;;;;;;;3.50;3.00;;;;;20.32;55.72;101115.72;4958128;28;45347;-65
2021/07/29 08:22:36;;;;;;;;;5.00;5.00;;;;;20.15;55.50;101088.91;4987378;28;45584;-65
2021/07/29 08:25:03;;;;;;;;;5.00;3.00;;;;;20.28;55.29;101102.47;4957895;28;46304;-64
2021/07/29 08:27:33;;;;;;;;;3.25;3.25;;;;;20.38;54.77;101106.34;4973699;28;45754;-65
2021/07/29 08:30:09;;;;;;;;;;;;;;;;;;;;;
2021/07/29 08:32:37;;;;;;;;;3.00;3.00;;;;;20.49;54.10;101122.72;4965079;28;71445;-65
2021/07/29 08:35:06;;;;;;;;;3.00;3.00;;;;;20.44;54.01;101107.75;4956971;28;47504;-65
2021/07/29 08:37:31;;;;;;;;;2.50;2.50;;;;;20.31;53.86;101077.88;4959122;28;45315;-65
2021/07/29 08:39:59;;;;;;;;;3.00;2.50;;;;;20.36;53.83;101083.84;4957635;28;45477;-65
2021/07/29 08:42:26;;;;;;;;;2.00;2.00;;;;;20.38;53.96;101087.34;4959030;28;45457;-64
2021/07/29 08:44:52;;;;;;;;;2.00;2.00;;;;;20.27;53.86;101058.25;4993754;28;45569;-65
2021/07/29 08:47:23;;;;;;;;;2.00;2.00;;;;;20.45;53.71;101099.50;4974017;28;45645;-64
2021/07/29 08:49:53;;;;;;;;;7.25;2.00;;;;;20.35;52.88;101072.16;4990584;28;45288;-64
2021/07/29 08:52:18;;;;;;;;;2.00;1.00;;;;;20.63;52.38;101107.38;4954291;28;45257;-64
2021/07/29 08:54:46;;;;;;;;;4.00;3.00;;;;;20.44;52.37;101080.63;4972175;28;47611;-64
2021/07/29 08:57:17;;;;;;;;;2.00;2.00;;;;;20.26;52.81;101053.78;4957716;28;45337;-64
2021/07/29 08:59:42;;;;;;;;;2.00;2.00;;;;;20.46;52.48;101074.13;4990268;27;45445;-64
2021/07/29 09:02:22;;;;;;;;;2.25;2.25;;;;;20.67;52.27;101104.34;4958859;28;45269;-64
2021/07/29 09:05:06;;;;;;;;;4.00;2.25;;;;;20.72;51.79;101120.31;4973100;28;46268;-64
2021/07/29 09:07:35;;;;;;;;;2.00;2.00;;;;;20.69;52.07;101107.81;4958827;28;45359;-65
2021/07/29 09:10:03;;;;;;;;;3.00;2.00;;;;;20.59;51.60;101087.72;4981034;28;45438;-65
2021/07/29 09:12:29;;;;;;;;;2.75;2.75;;;;;20.71;51.12;101102.28;5019954;28;45365;-65
2021/07/29 09:14:55;;;;;;;;;2.00;2.00;;;;;20.46;51.71;101057.00;4958897;28;46885;-65
2021/07/29 09:17:22;;;;;;;;;3.25;1.00;;;;;20.66;50.93;101077.34;4958524;28;45349;-65
2021/07/29 09:19:49;;;;;;;;;2.25;1.25;;;;;20.61;50.79;101068.63;4957389;28;45319;-65
2021/07/29 09:22:22;;;;;;;;;4.00;3.25;;;;;20.90;51.24;101110.03;4994564;28;45371;-66
2021/07/29 09:25:05;;;;;;;;;2.25;2.25;;;;;20.92;50.76;101108.06;4946291;28;46222;-66
2021/07/29 09:27:37;;;;;;;;;2.50;1.00;;;;;20.93;50.78;101104.38;4958198;28;45657;-66
2021/07/29 09:30:22;;;;;;;;;2.00;2.00;;;;;20.97;51.52;101102.34;4958759;28;45482;-65
2021/07/29 09:33:02;;;;;;;;;3.00;3.00;;;;;20.98;51.17;101095.91;4945971;28;45267;-65
2021/07/29 09:35:40;;;;;;;;;3.25;2.25;;;;;20.94;50.67;101095.25;4958218;28;46184;-65
2021/07/29 09:38:09;;;;;;;;;3.00;3.00;;;;;20.79;50.54;101055.66;4953726;28;45404;-65
2021/07/29 09:40:59;;;;;;;;;2.25;2.00;;;;;20.85;50.59;101066.94;4955727;28;45553;-65
2021/07/29 09:43:29;;;;;;;;;3.00;3.00;;;;;20.79;49.95;101061.94;4958334;28;45443;-65
2021/07/29 09:45:56;;;;;;;;;1.00;1.00;;;;;20.91;50.01;101079.19;5011019;28;46578;-65
2021/07/29 09:48:22;;;;;;;;;3.50;2.00;;;;;20.93;50.48;101085.38;4956701;28;45916;-65
2021/07/29 09:50:52;;;;;;;;;2.75;2.00;;;;;21.11;50.07;101099.50;4957193;28;45341;-65
2021/07/29 09:53:19;;;;;;;;;5.00;2.00;;;;;21.08;49.92;101088.84;4958078;28;45335;-68
2021/07/29 09:55:44;;;;;;;;;1.00;1.00;;;;;20.92;50.66;101056.53;4958272;28;45401;-67
2021/07/29 09:58:10;;;;;;;;;4.00;2.50;;;;;21.07;50.25;101079.84;4971001;28;45400;-66
2021/07/29 10:00:37;;;;;;;;;3.00;3.00;;;;;21.07;50.36;101084.41;4958260;28;45358;-66
2021/07/29 10:03:08;;;;;;;;;2.00;2.00;;;;;20.98;49.62;101058.81;4956260;28;45469;-65
2021/07/29 10:05:37;;;;;;;;;2.00;2.00;;;;;21.18;49.93;101086.34;4956199;28;45587;-65
2021/07/29 10:08:07;;;;;;;;;2.00;2.00;;;;;20.99;50.29;101051.53;4960222;28;45379;-65
2021/07/29 10:10:33;;;;;;;;;3.50;2.00;;;;;21.03;50.34;101056.63;4979941;28;45353;-65
2021/07/29 10:13:02;;;;;;;;;1.75;1.75;;;;;21.31;49.65;101089.06;5024087;28;45480;-65
2021/07/29 10:15:39;;;;;;;;;3.00;3.00;;;;;21.07;49.07;101041.00;5010645;28;47107;-65
2021/07/29 10:18:06;;;;;;;;;3.25;3.00;;;;;21.02;49.60;101033.16;4957270;28;45386;-65
2021/07/29 10:20:33;;;;;;;;;2.00;2.00;;;;;21.36;49.52;101090.44;4957052;28;45598;-65
2021/07/29 10:23:14;;;;;;;;;2.00;2.00;;;;;21.37;49.05;101091.34;4980111;28;45342;-65
2021/07/29 10:26:02;;;;;;;;;1.75;1.75;;;;;21.35;49.24;101077.88;4964781;28;45393;-65
2021/07/29 10:28:35;;;;;;;;;2.00;2.00;;;;;21.18;49.45;101049.19;4990659;28;45430;-65
2021/07/29 10:31:02;;;;;;;;;4.00;3.25;;;;;21.31;48.97;101073.63;4957531;28;45454;-66
2021/07/29 10:33:28;;;;;;;;;1.00;1.00;;;;;21.16;48.96;101047.59;4960219;28;45475;-65
2021/07/29 10:35:55;;;;;;;;;1.75;1.75;;;;;21.23;48.38;101052.47;4970467;28;45399;-65
2021/07/29 10:38:45;;;;;;;;;4.25;2.00;;;;;21.40;48.56;101059.41;4957458;28;45332;-65
2021/07/29 10:41:10;;;;;;;;;2.00;2.00;;;;;21.38;48.14;101060.47;4957769;28;45421;-65
2021/07/29 10:43:36;;;;;;;;;3.00;1.00;;;;;21.48;48.09;101075.16;4957673;28;45414;-65
2021/07/29 10:46:02;;;;;;;;;2.25;2.25;;;;;21.48;48.46;101069.72;4954174;27;47921;-65
2021/07/29 10:51:18;;;;;;;;;1.50;1.50;;;;;21.59;48.35;101068.94;4882913;28;45419;-66
2021/07/29 10:53:48;;;;;;;;;2.75;2.75;;;;;21.32;47.69;101012.03;4883774;29;45609;-65
2021/07/29 10:56:16;;;;;;;;;2.00;2.00;;;;;21.51;46.96;101049.63;4883752;28;46454;-66
2021/07/29 10:58:46;;;;;;;;;2.50;2.50;;;;;21.40;46.88;101036.78;4881578;28;45397;-66
2021/07/29 11:01:14;;;;;;;;;3.00;1.75;;;;;21.46;46.83;101042.63;4897026;29;45479;-65
2021/07/29 11:03:47;;;;;;;;;3.75;2.50;;;;;21.63;46.38;101055.03;4910431;28;45522;-66
2021/07/29 11:06:36;;;;;;;;;1.00;1.00;;;;;21.55;46.62;101041.16;4883917;28;45511;-66
2021/07/29 11:09:18;;;;;;;;;2.75;1.25;;;;;21.78;47.37;101079.31;4883893;28;45217;-66
2021/07/29 11:11:46;;;;;;;;;3.75;1.00;;;;;21.77;46.56;101066.72;4884347;29;45287;-66
2021/07/29 11:14:13;;;;;;;;;2.00;0.50;;;;;21.68;46.00;101037.50;4898598;29;45467;-66
2021/07/29 11:16:39;;;;;;;;;0.75;0.50;;;;;21.79;46.26;101046.59;4883701;28;47267;-65
2021/07/29 11:19:06;;;;;;;;;2.50;1.00;;;;;21.83;46.14;101049.94;4883605;29;45352;-65
2021/07/29 11:21:34;;;;;;;;;2.00;2.00;;;;;21.74;45.84;101042.50;4882627;28;45436;-66
2021/07/29 11:24:00;;;;;;;;;3.50;2.25;;;;;21.94;46.25;101058.16;4882426;28;45263;-66
2021/07/29 11:26:26;;;;;;;;;1.00;1.00;;;;;21.90;45.81;101058.50;4882446;29;46404;-66
2021/07/29 11:29:08;;;;;;;;;1.75;1.50;;;;;21.79;46.32;101033.00;4884044;29;45365;-66
2021/07/29 11:31:37;;;;;;;;;2.00;2.00;;;;;21.80;45.96;101023.88;4883755;28;45329;-66